Time;durP1;ratioP1;P1;durP2;ratioP2;P2;SDS_P1;SDS_P2;PMS_P1;PMS_P2;Temp;Humidity;BMP_temperature;BMP_pressure;BME280_temperature;BME280_humidity;BME280_pressure;Samples;Min_cycle;Max_cycle;Signal;HPM_P1;HPM_P2
2023/03/25 00:00:58;;;;;;;16.73;2.92;;;;;;;;;;5035223;28;20419;-77
2023/03/25 00:03:25;;;;;;;13.98;2.63;;;;;;;;;;5034985;28;20416;-77
2023/03/25 00:05:52;;;;;;;16.70;2.55;;;;;;;;;;5052650;28;20449;-77
2023/03/25 00:08:18;;;;;;;12.80;3.03;;;;;;;;;;5052159;28;20484;-77
2023/03/25 00:10:44;;;;;;;15.77;3.28;;;;;;;;;;5050646;28;20419;-77
2023/03/25 00:13:12;;;;;;;18.35;3.40;;;;;;;;;;5034356;28;20423;-77
2023/03/25 00:15:44;;;;;;;15.18;2.90;;;;;;;;;;5047472;28;20419;-77
2023/03/25 00:18:10;;;;;;;16.08;3.08;;;;;;;;;;5052220;28;20468;-77
2023/03/25 00:20:39;;;;;;;15.82;2.95;;;;;;;;;;5051226;28;20412;-77
2023/03/25 00:23:05;;;;;;;16.25;3.22;;;;;;;;;;5052199;28;20419;-77
2023/03/25 00:25:32;;;;;;;16.52;3.38;;;;;;;;;;5033931;28;20430;-76
2023/03/25 00:27:58;;;;;;;13.35;3.10;;;;;;;;;;5052319;28;20446;-77
2023/03/25 00:30:25;;;;;;;16.75;3.00;;;;;;;;;;5051253;28;20419;-77
2023/03/25 00:32:56;;;;;;;14.57;3.13;;;;;;;;;;5052981;28;20423;-77
2023/03/25 00:35:24;;;;;;;19.65;3.28;;;;;;;;;;5052435;28;20444;-77
2023/03/25 00:37:56;;;;;;;17.52;3.08;;;;;;;;;;5019080;28;20419;-78
2023/03/25 00:40:22;;;;;;;19.47;3.50;;;;;;;;;;5051609;28;20476;-78
2023/03/25 00:42:49;;;;;;;14.40;3.03;;;;;;;;;;5036663;28;20407;-77
2023/03/25 00:45:16;;;;;;;20.08;3.55;;;;;;;;;;5034179;28;20927;-77
2023/03/25 00:47:42;;;;;;;14.73;3.63;;;;;;;;;;5033221;28;20469;-78
2023/03/25 00:50:09;;;;;;;20.75;3.58;;;;;;;;;;5032763;28;20485;-78
2023/03/25 00:52:35;;;;;;;19.47;3.43;;;;;;;;;;5050893;28;20501;-78
2023/03/25 00:55:01;;;;;;;15.98;3.50;;;;;;;;;;5030440;28;20419;-78
2023/03/25 00:57:27;;;;;;;19.90;3.40;;;;;;;;;;5051969;28;20851;-79
2023/03/25 00:59:53;;;;;;;14.55;3.47;;;;;;;;;;5054902;28;20756;-78
2023/03/25 01:02:20;;;;;;;24.88;4.38;;;;;;;;;;5036587;28;20425;-78
2023/03/25 01:04:48;;;;;;;21.02;4.38;;;;;;;;;;5038679;28;20462;-78
2023/03/25 01:07:15;;;;;;;18.40;3.83;;;;;;;;;;5039493;28;20946;-78
2023/03/25 01:09:42;;;;;;;22.13;3.60;;;;;;;;;;5038634;28;21116;-79
2023/03/25 01:12:08;;;;;;;22.50;4.30;;;;;;;;;;5054935;28;20494;-77
2023/03/25 01:14:35;;;;;;;19.60;3.75;;;;;;;;;;5055691;28;20843;-78
2023/03/25 01:17:01;;;;;;;23.13;3.83;;;;;;;;;;5020526;28;20937;-77
2023/03/25 01:19:27;;;;;;;21.65;4.35;;;;;;;;;;5027725;28;20498;-78
2023/03/25 01:21:53;;;;;;;23.45;4.07;;;;;;;;;;5054630;28;20411;-79
2023/03/25 01:24:20;;;;;;;19.77;4.15;;;;;;;;;;5039104;28;20466;-79
2023/03/25 01:26:46;;;;;;;22.40;4.25;;;;;;;;;;5010030;28;20426;-78
2023/03/25 01:29:13;;;;;;;26.33;4.90;;;;;;;;;;5038581;28;20415;-78
2023/03/25 01:31:39;;;;;;;24.00;4.40;;;;;;;;;;5055196;28;20407;-78
2023/03/25 01:34:07;;;;;;;24.52;4.55;;;;;;;;;;5032474;28;20428;-78
2023/03/25 01:36:34;;;;;;;27.40;4.80;;;;;;;;;;5051123;28;20459;-78
2023/03/25 01:39:01;;;;;;;24.15;4.20;;;;;;;;;;5054408;28;20431;-78
2023/03/25 01:41:28;;;;;;;22.80;4.90;;;;;;;;;;5038636;28;20420;-78
2023/03/25 01:44:23;;;;;;;20.65;4.75;;;9.50;99.90;;;;;;5053640;28;20498;-78
2023/03/25 01:46:51;;;;;;;23.73;4.65;;;;;;;;;;5010489;28;20404;-79
2023/03/25 01:49:30;;;;;;;21.20;4.30;;;;;;;;;;5055013;28;20411;-78
2023/03/25 01:51:59;;;;;;;24.13;4.18;;;;;;;;;;5054972;28;20412;-78
2023/03/25 01:54:26;;;;;;;20.52;4.78;;;;;;;;;;5038634;28;20427;-79
2023/03/25 01:56:53;;;;;;;21.45;4.70;;;;;;;;;;5038736;28;20437;-79
2023/03/25 01:59:23;;;;;;;28.13;5.70;;;;;;;;;;5055767;28;20418;-78
2023/03/25 02:01:50;;;;;;;27.85;5.10;;;;;;;;;;5038801;28;20439;-79
2023/03/25 02:04:21;;;;;;;25.27;5.25;;;;;;;;;;5051182;28;20420;-78
2023/03/25 02:06:52;;;;;;;27.02;5.03;;;;;;;;;;5054981;28;20744;-79
2023/03/25 02:09:20;;;;;;;23.58;5.07;;;;;;;;;;5052801;28;20423;-79
2023/03/25 02:11:46;;;;;;;29.10;5.50;;;;;;;;;;5053769;28;20418;-80
2023/03/25 02:14:15;;;;;;;22.92;4.85;;;;;;;;;;5037569;28;20953;-80
2023/03/25 02:16:53;;;;;;;27.35;5.60;;;;;;;;;;5055565;28;20429;-79
2023/03/25 02:19:43;;;;;;;23.67;4.70;;;;;;;;;;5036430;28;20423;-79
2023/03/25 02:22:16;;;;;;;27.47;5.23;;;;;;;;;;5045039;28;20525;-79
2023/03/25 02:25:10;;;;;;;26.98;5.22;;;9.30;99.90;;;;;;5052384;28;20420;-79
2023/03/25 02:27:56;;;;;;;24.67;5.38;;;;;;;;;;5038141;28;20415;-79
2023/03/25 02:30:38;;;;;;;22.90;5.18;;;;;;;;;;5038627;28;20889;-79
2023/03/25 02:33:15;;;;;;;24.90;5.35;;;;;;;;;;5036399;28;20903;-80
2023/03/25 02:36:15;;;;;;;23.13;5.07;;;8.90;99.90;;;;;;5051680;28;20506;-79
2023/03/25 02:38:53;;;;;;;28.65;5.15;;;;;;;;;;5052884;28;20419;-79
2023/03/25 02:41:42;;;;;;;29.70;5.30;;;;;;;;;;5046663;28;20420;-79
2023/03/25 02:44:12;;;;;;;21.30;5.03;;;;;;;;;;5042541;28;20569;-79
2023/03/25 02:46:40;;;;;;;24.40;5.23;;;;;;;;;;5033622;28;20431;-79
2023/03/25 02:49:17;;;;;;;25.40;4.53;;;;;;;;;;5052676;28;20427;-79
2023/03/25 02:51:46;;;;;;;24.75;4.90;;;;;;;;;;5035214;28;20506;-78
2023/03/25 02:54:13;;;;;;;23.85;4.40;;;;;;;;;;5053722;28;20807;-79
2023/03/25 02:56:42;;;;;;;25.95;4.75;;;;;;;;;;5028401;28;20781;-79
2023/03/25 02:59:13;;;;;;;23.17;4.53;;;;;;;;;;5037737;28;20429;-79
2023/03/25 03:01:39;;;;;;;22.63;4.25;;;;;;;;;;5035248;28;20451;-79
2023/03/25 03:04:06;;;;;;;24.50;4.45;;;;;;;;;;5037874;28;20423;-79
2023/03/25 03:06:36;;;;;;;25.97;4.03;;;;;;;;;;5052551;28;20506;-79
2023/03/25 03:09:11;;;;;;;24.50;4.68;;;;;;;;;;5052831;28;20430;-79
2023/03/25 03:11:42;;;;;;;21.17;4.47;;;;;;;;;;5036079;28;20475;-79
2023/03/25 03:14:12;;;;;;;26.05;4.47;;;;;;;;;;5028102;28;20665;-79
2023/03/25 03:16:38;;;;;;;23.58;4.53;;;;;;;;;;5037088;28;20415;-79
2023/03/25 03:19:23;;;;;;;21.83;4.23;;;9.40;99.90;;;;;;5052969;28;20500;-78
2023/03/25 03:21:50;;;;;;;18.85;4.15;;;;;;;;;;5037617;28;20404;-79
2023/03/25 03:24:21;;;;;;;22.77;4.30;;;;;;;;;;5053141;28;20416;-79
2023/03/25 03:27:32;;;;;;;25.90;4.43;;;9.40;99.90;;;;;;5042106;28;20439;-79
2023/03/25 03:30:11;;;;;;;21.10;4.50;;;;;;;;;;5025961;28;20808;-79
2023/03/25 03:33:01;;;;;;;22.23;4.25;;;;;;;;;;5052183;28;21004;-79
2023/03/25 03:35:37;;;;;;;23.05;4.50;;;;;;;;;;5037212;28;20454;-79
2023/03/25 03:38:08;;;;;;;16.17;4.22;;;;;;;;;;5035182;28;20419;-79
2023/03/25 03:40:36;;;;;;;22.00;4.05;;;;;;;;;;5036469;28;20418;-79
2023/03/25 03:43:02;;;;;;;21.65;4.45;;;;;;;;;;5053151;28;20427;-79
2023/03/25 03:45:38;;;;;;;24.23;4.65;;;;;;;;;;5034825;28;20426;-79
2023/03/25 03:48:09;;;;;;;24.48;4.25;;;;;;;;;;5051468;28;20432;-79
2023/03/25 03:50:40;;;;;;;22.52;4.07;;;;;;;;;;5052827;28;20457;-79
2023/03/25 03:53:16;;;;;;;21.55;4.38;;;;;;;;;;5053767;28;20400;-79
2023/03/25 03:55:52;;;;;;;21.33;4.10;;;;;;;;;;5052715;28;20997;-79
2023/03/25 03:58:22;;;;;;;27.92;5.00;;;;;;;;;;5051452;28;20466;-79
2023/03/25 04:01:10;;;;;;;26.52;4.90;;;;;;;;;;5050363;28;20923;-77
2023/03/25 04:03:40;;;;;;;22.98;4.20;;;;;;;;;;5036886;28;20499;-77
2023/03/25 04:06:17;;;;;;;25.65;5.32;;;;;;;;;;5036041;28;20416;-77
2023/03/25 04:09:05;;;;;;;26.02;4.70;;;;;;;;;;5034546;28;20994;-77
2023/03/25 04:11:41;;;;;;;23.10;5.00;;;;;;;;;;5052059;28;20431;-77
2023/03/25 04:14:08;;;;;;;22.80;4.82;;;;;;;;;;5035990;28;20528;-78
2023/03/25 04:16:36;;;;;;;20.05;4.50;;;;;;;;;;5053188;28;20497;-78
2023/03/25 04:19:03;;;;;;;24.35;5.30;;;;;;;;;;5035546;28;20404;-78
2023/03/25 04:21:29;;;;;;;23.73;4.80;;;;;;;;;;5017622;28;20438;-79
2023/03/25 04:23:55;;;;;;;19.33;4.03;;;;;;;;;;5026651;28;20496;-78
2023/03/25 04:26:21;;;;;;;25.92;5.38;;;;;;;;;;5033552;28;20450;-78
2023/03/25 04:28:47;;;;;;;23.85;4.32;;;;;;;;;;5048521;28;20419;-79
2023/03/25 04:31:14;;;;;;;22.10;4.75;;;;;;;;;;5051282;28;20419;-79
2023/03/25 04:33:45;;;;;;;21.13;4.60;;;9.50;99.90;;;;;;5036244;28;20839;-78
2023/03/25 04:36:12;;;;;;;21.92;4.55;;;;;;;;;;5055531;28;20423;-78
2023/03/25 04:38:39;;;;;;;20.50;4.65;;;;;;;;;;5055516;28;20494;-78
2023/03/25 04:41:05;;;;;;;22.60;4.40;;;;;;;;;;5054681;28;20423;-79
2023/03/25 04:43:32;;;;;;;26.45;4.93;;;;;;;;;;5040821;28;20396;-78
2023/03/25 04:45:59;;;;;;;18.93;4.10;;;;;;;;;;5055549;28;20889;-78
2023/03/25 04:48:33;;;;;;;21.83;4.20;;;;;;;;;;5052747;28;20448;-78
2023/03/25 04:51:00;;;;;;;25.88;4.80;;;;;;;;;;5038131;28;20440;-78
2023/03/25 04:53:27;;;;;;;20.57;4.40;;;;;;;;;;5023734;28;20425;-78
2023/03/25 04:55:53;;;;;;;23.02;4.78;;;;;;;;;;5042214;28;20769;-78
2023/03/25 04:58:20;;;;;;;23.88;4.88;;;;;;;;;;5048792;28;20431;-79
2023/03/25 05:00:49;;;;;;;21.23;4.97;;;;;;;;;;5033827;28;20424;-78
2023/03/25 05:03:15;;;;;;;24.40;5.20;;;;;;;;;;5044467;28;20422;-79
2023/03/25 05:05:41;;;;;;;21.90;4.57;;;;;;;;;;5055827;28;20423;-79
2023/03/25 05:08:07;;;;;;;24.35;5.07;;;;;;;;;;5024591;28;20435;-79
2023/03/25 05:10:35;;;;;;;22.85;4.90;;;;;;;;;;5038589;28;20423;-80
2023/03/25 05:13:05;;;;;;;25.70;5.28;;;;;;;;;;5056163;28;20454;-79
2023/03/25 05:15:38;;;;;;;24.23;5.03;;;;;;;;;;5039290;28;20419;-79
2023/03/25 05:18:05;;;;;;;26.90;5.17;;;;;;;;;;5053339;28;20438;-78
2023/03/25 05:20:33;;;;;;;25.05;5.50;;;;;;;;;;5039644;28;20427;-78
2023/03/25 05:23:00;;;;;;;24.77;5.20;;;;;;;;;;5056606;28;20498;-78
2023/03/25 05:25:27;;;;;;;25.57;5.43;;;;;;;;;;5056430;28;20419;-78
2023/03/25 05:27:53;;;;;;;25.98;5.18;;;;;;;;;;5057417;28;20403;-78
2023/03/25 05:30:19;;;;;;;23.17;5.50;;;;;;;;;;5055086;28;20424;-78
2023/03/25 05:32:49;;;;;;;24.92;5.05;;;;;;;;;;5042140;28;20441;-79
2023/03/25 05:35:15;;;;;;;27.00;5.10;;;;;;;;;;5038495;28;20434;-79
2023/03/25 05:37:42;;;;;;;22.60;5.03;;;;;;;;;;5040576;28;20447;-78
2023/03/25 05:40:09;;;;;;;26.40;4.60;;;;;;;;;;5043510;28;20850;-78
2023/03/25 05:42:36;;;;;;;25.10;4.97;;;;;;;;;;5056990;28;20506;-77
2023/03/25 05:45:02;;;;;;;28.48;5.55;;;;;;;;;;5038617;28;20428;-78
2023/03/25 05:47:29;;;;;;;23.27;5.30;;;;;;;;;;5037968;28;20934;-78
2023/03/25 05:49:55;;;;;;;26.13;5.10;;;;;;;;;;5056777;28;20503;-77
2023/03/25 05:52:26;;;;;;;22.70;4.88;;;;;;;;;;5031722;28;20981;-78
2023/03/25 05:54:52;;;;;;;25.60;5.30;;;;;;;;;;5053666;28;20783;-77
2023/03/25 05:57:18;;;;;;;23.95;5.35;;;;;;;;;;5055226;28;20506;-78
2023/03/25 05:59:44;;;;;;;25.90;5.72;;;;;;;;;;5039996;28;20911;-78
2023/03/25 06:02:14;;;;;;;26.75;5.03;;;;;;;;;;5054419;28;20439;-78
2023/03/25 06:04:41;;;;;;;29.48;5.82;;;;;;;;;;5048919;28;20554;-79
2023/03/25 06:07:18;;;;;;;23.95;4.55;;;;;;;;;;5055269;28;22169;-78
2023/03/25 06:09:52;;;;;;;22.13;4.67;;;;;;;;;;5055451;28;20423;-79
2023/03/25 06:12:19;;;;;;;24.27;4.75;;;;;;;;;;5054347;28;20426;-79
2023/03/25 06:14:46;;;;;;;30.35;5.88;;;;;;;;;;5053162;28;20676;-78
2023/03/25 06:17:12;;;;;;;25.52;5.00;;;;;;;;;;5054614;28;20430;-78
2023/03/25 06:19:39;;;;;;;26.10;5.70;;;;;;;;;;5056013;28;20410;-79
2023/03/25 06:22:09;;;;;;;20.95;4.30;;;;;;;;;;5042248;28;20484;-79
2023/03/25 06:24:38;;;;;;;24.80;5.03;;;;;;;;;;5074790;28;20423;-78
2023/03/25 06:27:08;;;;;;;30.33;5.38;;;;;;;;;;5057699;28;20426;-79
2023/03/25 06:29:40;;;;;;;23.92;5.40;;;;;;;;;;5045792;28;20791;-79
2023/03/25 06:32:07;;;;;;;28.43;4.87;;;;;;;;;;5053783;28;20451;-79
2023/03/25 06:34:33;;;;;;;23.50;5.13;;;;;;;;;;5037670;28;20497;-79
2023/03/25 06:37:00;;;;;;;22.23;4.73;;;;;;;;;;5036341;28;20505;-79
2023/03/25 06:39:26;;;;;;;21.40;4.90;;;;;;;;;;5052138;28;20423;-79
2023/03/25 06:41:52;;;;;;;25.47;5.27;;;;;;;;;;5055728;28;20497;-79
2023/03/25 06:44:18;;;;;;;22.23;4.65;;;;;;;;;;5038661;28;20438;-79
2023/03/25 06:46:44;;;;;;;21.92;4.40;;;;;;;;;;5021250;28;20426;-79
2023/03/25 06:49:10;;;;;;;29.75;5.00;;;;;;;;;;5072998;28;20424;-79
2023/03/25 06:51:37;;;;;;;19.45;4.50;;;;;;;;;;5018840;28;20416;-78
2023/03/25 06:54:03;;;;;;;22.63;4.45;;;;;;;;;;5033813;28;20425;-79
2023/03/25 06:56:29;;;;;;;22.37;4.40;;;;;;;;;;5036678;28;20419;-77
2023/03/25 06:58:55;;;;;;;22.15;4.28;;;;;;;;;;5048342;28;20428;-77
2023/03/25 07:01:21;;;;;;;20.52;4.40;;;;;;;;;;5034647;28;20427;-77
2023/03/25 07:03:47;;;;;;;22.38;4.72;;;;;;;;;;5041633;28;20495;-77
2023/03/25 07:06:15;;;;;;;21.92;4.25;;;;;;;;;;5029802;28;20938;-77
2023/03/25 07:08:41;;;;;;;22.50;4.70;;;;;;;;;;5049461;28;20494;-76
2023/03/25 07:11:08;;;;;;;24.98;4.90;;;;;;;;;;5036460;28;20776;-77
2023/03/25 07:13:34;;;;;;;16.55;4.60;;;;;;;;;;5035339;28;20871;-78
2023/03/25 07:16:00;;;;;;;18.23;4.00;;;;;;;;;;5035951;28;20424;-77
2023/03/25 07:18:26;;;;;;;22.55;4.45;;;;;;;;;;5054045;28;20419;-76
2023/03/25 07:20:53;;;;;;;17.17;3.93;;;;;;;;;;5046074;28;20944;-76
2023/03/25 07:23:19;;;;;;;17.77;4.20;;;;;;;;;;5045400;28;20419;-77
2023/03/25 07:25:45;;;;;;;19.20;4.00;;;;;;;;;;5037607;28;20564;-77
2023/03/25 07:28:11;;;;;;;20.50;4.30;;;;;;;;;;5050522;28;20923;-77
2023/03/25 07:30:37;;;;;;;19.80;4.30;;;;;;;;;;5019374;28;20454;-77
2023/03/25 07:33:04;;;;;;;20.42;4.28;;;;;;;;;;5035700;28;20411;-77
2023/03/25 07:35:30;;;;;;;18.98;4.10;;;;;;;;;;5052855;28;20434;-76
2023/03/25 07:37:56;;;;;;;20.85;4.50;;;;;;;;;;5054902;28;20764;-77
2023/03/25 07:40:22;;;;;;;20.50;3.90;;;;;;;;;;5034602;28;20743;-77
2023/03/25 07:42:48;;;;;;;14.83;3.80;;;;;;;;;;5054124;28;20829;-77
2023/03/25 07:45:14;;;;;;;17.48;3.78;;;;;;;;;;5035693;28;20430;-76
2023/03/25 07:47:41;;;;;;;18.30;4.47;;;;;;;;;;5053069;28;20422;-76
2023/03/25 07:50:07;;;;;;;18.25;3.95;;;;;;;;;;5020935;28;20420;-75
2023/03/25 07:52:34;;;;;;;15.75;3.83;;;;;;;;;;5053698;28;20404;-76
2023/03/25 07:55:01;;;;;;;18.85;3.78;;;;;;;;;;5036655;28;20431;-76
2023/03/25 07:57:27;;;;;;;14.30;3.27;;;;;;;;;;5050457;28;20756;-76
2023/03/25 07:59:53;;;;;;;13.98;3.50;;;;;;;;;;5052744;28;20514;-76
2023/03/25 08:02:19;;;;;;;16.40;3.47;;;;;;;;;;5036265;28;20424;-77
2023/03/25 08:04:45;;;;;;;15.52;3.33;;;;;;;;;;5054072;28;20776;-75
2023/03/25 08:07:11;;;;;;;18.27;3.47;;;;;;;;;;5018644;28;20518;-76
2023/03/25 08:09:37;;;;;;;18.63;3.55;;;;;;;;;;5051732;28;20430;-76
2023/03/25 08:12:03;;;;;;;17.40;3.42;;;;;;;;;;5028616;28;20432;-77
2023/03/25 08:14:29;;;;;;;17.52;3.72;;;;;;;;;;5054519;28;20457;-76
2023/03/25 08:16:55;;;;;;;20.80;4.00;;;;;;;;;;5050008;28;20423;-76
2023/03/25 08:19:21;;;;;;;18.00;3.95;;;;;;;;;;5047919;28;20843;-77
2023/03/25 08:21:48;;;;;;;16.58;3.80;;;;;;;;;;5051789;28;20818;-77
2023/03/25 08:24:14;;;;;;;24.77;5.20;;;;;;;;;;5036657;28;20423;-75
2023/03/25 08:26:40;;;;;;;17.33;4.22;;;;;;;;;;5035323;28;20493;-78
2023/03/25 08:29:06;;;;;;;16.13;4.20;;;;;;;;;;5036344;28;20451;-78
2023/03/25 08:31:32;;;;;;;21.13;4.28;;;;;;;;;;5036882;28;20421;-77
2023/03/25 08:34:02;;;;;;;23.63;5.05;;;;;;;;;;5031571;28;20947;-78
2023/03/25 08:36:28;;;;;;;20.27;4.15;;;;;;;;;;5044422;28;20425;-78
2023/03/25 08:38:54;;;;;;;20.25;4.22;;;;;;;;;;5039904;28;20432;-78
2023/03/25 08:41:20;;;;;;;22.42;4.22;;;;;;;;;;5050411;28;20427;-78
2023/03/25 08:43:47;;;;;;;23.73;4.07;;;;;;;;;;5020896;28;20494;-78
2023/03/25 08:46:13;;;;;;;19.80;4.40;;;;;;;;;;5050764;28;20484;-77
2023/03/25 08:48:39;;;;;;;19.27;4.22;;;;;;;;;;5063664;28;20503;-77
2023/03/25 08:51:05;;;;;;;20.60;4.10;;;;;;;;;;5031576;28;20431;-76
2023/03/25 08:53:31;;;;;;;21.52;4.55;;;;;;;;;;5046291;28;20420;-78
2023/03/25 08:55:58;;;;;;;22.00;4.68;;;;;;;;;;5050624;28;20464;-78
2023/03/25 08:58:25;;;;;;;14.13;3.63;;;;;;;;;;5030701;28;20444;-78
2023/03/25 09:00:54;;;;;;;21.85;4.75;;;10.30;99.90;;;;;;5028217;28;20448;-78
2023/03/25 09:03:21;;;;;;;19.05;3.90;;;10.10;99.90;;;;;;5041903;28;20452;-78
2023/03/25 09:05:48;;;;;;;19.73;4.07;;;;;;;;;;5026903;28;20423;-79
2023/03/25 09:08:14;;;;;;;17.60;3.80;;;;;;;;;;5050048;28;20768;-78
2023/03/25 09:10:40;;;;;;;22.05;4.30;;;;;;;;;;5013718;28;20775;-79
2023/03/25 09:13:07;;;;;;;21.52;4.03;;;;;;;;;;5032614;28;20412;-79
2023/03/25 09:15:33;;;;;;;14.63;3.42;;;;;;;;;;5015182;28;20506;-79
2023/03/25 09:17:59;;;;;;;17.15;3.67;;;;;;;;;;5031917;28;20771;-78
2023/03/25 09:20:25;;;;;;;17.25;3.60;;;;;;;;;;5017511;28;20858;-79
2023/03/25 09:22:51;;;;;;;15.82;4.00;;;;;;;;;;5054804;28;20448;-79
2023/03/25 09:25:18;;;;;;;17.38;3.40;;;;;;;;;;5029479;28;20448;-79
2023/03/25 09:27:44;;;;;;;16.83;3.83;;;;;;;;;;5017971;28;20925;-79
2023/03/25 09:30:11;;;;;;;15.57;3.50;;;;;;;;;;5033913;28;20426;-79
2023/03/25 09:32:37;;;;;;;19.42;3.95;;;;;;;;;;5042607;28;20487;-78
2023/03/25 09:35:03;;;;;;;19.27;3.93;;;;;;;;;;5032924;28;20525;-78
2023/03/25 09:37:29;;;;;;;17.70;3.38;;;;;;;;;;5045707;28;20425;-79
2023/03/25 09:39:56;;;;;;;17.02;3.47;;;;;;;;;;5027797;28;20958;-79
2023/03/25 09:42:28;;;;;;;16.38;3.65;;;;;;;;;;5032156;28;20430;-78
2023/03/25 09:44:55;;;;;;;15.17;3.20;;;;;;;;;;5039023;28;20645;-78
2023/03/25 09:47:23;;;;;;;17.10;3.80;;;;;;;;;;5046705;28;20431;-78
2023/03/25 09:49:52;;;;;;;18.77;4.20;;;;;;;;;;5045666;28;20441;-77
2023/03/25 09:52:48;;;;;;;16.83;3.47;;;;;;;;;;5042929;28;20938;-79
2023/03/25 09:55:17;;;;;;;17.02;4.20;;;;;;;;;;4968847;28;20462;-79
2023/03/25 09:57:48;;;;;;;17.38;3.92;;;;;;;;;;5032755;28;20439;-79
2023/03/25 10:00:19;;;;;;;17.60;4.10;;;;;;;;;;5034429;28;20496;-78
2023/03/25 10:02:51;;;;;;;18.40;3.95;;;;;;;;;;5052348;28;20431;-78
2023/03/25 10:05:34;;;;;;;20.70;3.78;;;;;;;;;;5054158;28;20423;-79
2023/03/25 10:08:20;;;;;;;19.15;3.85;;;;;;;;;;5036786;28;20411;-79
2023/03/25 10:10:52;;;;;;;17.65;4.00;;;;;;;;;;5033992;28;20416;-79
2023/03/25 10:13:27;;;;;;;21.90;4.15;;;;;;;;;;5036471;28;20416;-80
2023/03/25 10:16:01;;;;;;;19.43;4.20;;;;;;;;;;5036749;28;20424;-80
2023/03/25 10:18:39;;;;;;;16.93;3.60;;;;;;;;;;5036055;28;20394;-80
2023/03/25 10:21:19;;;;;;;16.67;3.63;;;;;;;;;;5031963;28;20502;-79
2023/03/25 10:23:55;;;;;;;19.08;3.53;;;;;;;;;;5052575;28;20427;-79
2023/03/25 10:26:30;;;;;;;16.42;4.20;;;;;;;;;;5033780;28;20433;-79
2023/03/25 10:28:57;;;;;;;16.33;3.80;;;;;;;;;;5035439;28;20409;-79
2023/03/25 10:31:24;;;;;;;18.38;3.33;;;;;;;;;;5049974;28;20419;-79
2023/03/25 10:33:55;;;;;;;16.48;3.45;;;;;;;;;;5035282;28;20447;-80
2023/03/25 10:36:27;;;;;;;17.98;3.67;;;;;;;;;;5016711;28;20453;-79
2023/03/25 10:38:54;;;;;;;16.42;3.42;;;;;;;;;;5047671;28;20443;-80
2023/03/25 10:41:24;;;;;;;18.65;3.53;;;;;;;;;;5034352;28;20445;-79
2023/03/25 10:43:50;;;;;;;19.73;3.60;;;;;;;;;;5046957;28;20416;-79
2023/03/25 10:46:22;;;;;;;14.10;3.95;;;;;;;;;;5036661;28;20927;-80
2023/03/25 10:48:50;;;;;;;16.85;4.13;;;;;;;;;;5045344;28;20488;-79
2023/03/25 10:51:17;;;;;;;17.92;4.47;;;;;;;;;;5016394;28;20437;-79
2023/03/25 10:53:46;;;;;;;16.40;3.45;;;;;;;;;;5031480;28;20448;-80
2023/03/25 10:56:23;;;;;;;18.77;3.88;;;10.50;99.90;;;;;;5030926;28;20441;-80
2023/03/25 10:58:56;;;;;;;18.10;3.72;;;;;;;;;;5016917;28;20432;-79
2023/03/25 11:01:31;;;;;;;15.32;3.33;;;;;;;;;;5030613;28;20464;-80
2023/03/25 11:03:59;;;;;;;19.90;3.67;;;;;;;;;;5017414;28;20900;-79
2023/03/25 11:06:25;;;;;;;15.05;3.55;;;;;;;;;;5028389;28;20430;-78
2023/03/25 11:08:58;;;;;;;15.07;3.80;;;;;;;;;;5027238;28;20421;-79
2023/03/25 11:11:33;;;;;;;16.67;3.20;;;;;;;;;;5032873;28;20463;-79
2023/03/25 11:14:00;;;;;;;11.98;3.20;;;;;;;;;;5014710;28;20483;-79
2023/03/25 11:16:27;;;;;;;15.20;3.70;;;;;;;;;;5031325;28;20812;-79
2023/03/25 11:18:53;;;;;;;17.92;3.75;;;;;;;;;;5029320;28;20478;-78
2023/03/25 11:21:20;;;;;;;17.30;3.67;;;;;;;;;;5026834;28;20952;-78
2023/03/25 11:23:47;;;;;;;14.60;3.03;;;;;;;;;;5031624;28;20451;-78
2023/03/25 11:26:16;;;;;;;12.02;3.10;;;;;;;;;;5031562;28;20421;-78
2023/03/25 11:28:46;;;;;;;13.13;3.03;;;;;;;;;;5027034;28;20421;-78
2023/03/25 11:31:13;;;;;;;9.48;3.03;;;;;;;;;;5013357;28;20424;-78
2023/03/25 11:33:40;;;;;;;15.95;3.13;;;;;;;;;;5031140;28;20436;-84
2023/03/25 11:36:12;;;;;;;15.18;3.25;;;;;;;;;;5029774;28;20417;-85
2023/03/25 11:38:39;;;;;;;12.60;3.38;;;;;;;;;;5026120;28;20423;-85
2023/03/25 11:41:08;;;;;;;13.10;3.13;;;;;;;;;;5021906;28;20460;-85
2023/03/25 11:43:38;;;;;;;10.15;2.83;;;;;;;;;;5007569;28;20530;-84
2023/03/25 11:46:09;;;;;;;12.67;2.70;;;;;;;;;;5014832;28;20425;-84
2023/03/25 11:48:37;;;;;;;10.43;2.67;;;;;;;;;;5007976;28;20567;-84
2023/03/25 11:51:06;;;;;;;13.55;2.40;;;;;;;;;;5042827;28;20413;-83
2023/03/25 11:53:32;;;;;;;11.45;2.88;;;11.90;99.90;;;;;;5023224;28;20423;-84
2023/03/25 11:55:59;;;;;;;12.48;2.88;;;;;;;;;;5048687;28;20424;-84
2023/03/25 11:58:27;;;;;;;15.48;3.45;;;;;;;;;;5038197;28;20990;-83
2023/03/25 12:01:01;;;;;;;11.63;2.80;;;;;;;;;;5049757;28;20425;-83
2023/03/25 12:03:29;;;;;;;13.13;3.10;;;11.60;99.90;;;;;;5032940;28;20453;-83
2023/03/25 12:06:00;;;;;;;10.23;2.50;;;;;;;;;;5044100;28;20429;-83
2023/03/25 12:08:44;;;;;;;11.27;2.80;;;;;;;;;;5029477;28;20498;-84
2023/03/25 12:11:13;;;;;;;10.77;2.80;;;;;;;;;;5046173;28;20955;-83
2023/03/25 12:13:42;;;;;;;10.80;2.60;;;;;;;;;;5030782;28;20407;-83
2023/03/25 12:16:17;;;;;;;14.90;3.33;;;;;;;;;;5031381;28;20572;-83
2023/03/25 12:19:02;;;;;;;11.20;2.78;;;;;;;;;;5046950;28;20751;-82
2023/03/25 12:21:54;;;;;;;11.18;2.47;;;;;;;;;;5030300;28;20492;-82
2023/03/25 12:24:43;;;;;;;11.27;2.47;;;;;;;;;;5021611;28;20489;-83
2023/03/25 12:27:43;;;;;;;11.07;2.58;;;12.40;99.90;;;;;;5042679;28;20427;-82
2023/03/25 12:30:33;;;;;;;11.17;2.60;;;;;;;;;;5044519;28;20471;-83
2023/03/25 12:33:33;;;;;;;11.02;2.55;;;12.20;99.90;;;;;;5020535;28;20502;-83
2023/03/25 12:36:11;;;;;;;12.13;2.65;;;;;;;;;;5030356;28;20425;-83
2023/03/25 12:38:57;;;;;;;11.63;2.85;;;12.50;99.90;;;;;;5046599;28;20470;-82
2023/03/25 12:41:31;;;;;;;13.38;3.40;;;12.30;99.90;;;;;;5022495;28;20481;-79
2023/03/25 12:43:59;;;;;;;14.45;2.80;;;;;;;;;;5042436;28;20484;-79
2023/03/25 12:46:52;;;;;;;15.05;3.22;;;;;;;;;;5041435;28;20421;-80
2023/03/25 12:49:31;;;;;;;11.35;2.70;;;;;;;;;;5031272;28;20421;-80
2023/03/25 12:52:00;;;;;;;16.83;3.22;;;;;;;;;;5047667;28;20497;-78
2023/03/25 12:54:39;;;;;;;13.20;3.10;;;;;;;;;;5050346;28;20488;-78
2023/03/25 12:57:05;;;;;;;15.18;3.65;;;;;;;;;;5051491;28;20757;-79
2023/03/25 12:59:40;;;;;;;14.70;3.35;;;;;;;;;;5053667;28;20425;-79
2023/03/25 13:02:15;;;;;;;15.88;3.10;;;;;;;;;;5046902;28;20427;-79
2023/03/25 13:04:47;;;;;;;16.08;3.50;;;;;;;;;;5031294;28;20476;-77
2023/03/25 13:07:22;;;;;;;17.35;3.33;;;;;;;;;;5047598;28;20427;-77
2023/03/25 13:09:48;;;;;;;10.60;3.00;;;;;;;;;;5031376;28;20515;-78
2023/03/25 13:12:26;;;;;;;14.38;3.00;;;;;;;;;;5038802;28;20422;-79
2023/03/25 13:14:52;;;;;;;11.85;3.00;;;;;;;;;;5037666;28;20430;-77
2023/03/25 13:17:24;;;;;;;16.23;3.50;;;;;;;;;;5037808;28;20420;-77
2023/03/25 13:19:53;;;;;;;11.00;2.90;;;;;;;;;;5053229;28;20988;-78
2023/03/25 13:22:25;;;;;;;14.73;3.07;;;;;;;;;;5055427;28;20515;-78
2023/03/25 13:24:57;;;;;;;11.07;3.13;;;;;;;;;;5054027;28;20904;-77
2023/03/25 13:27:24;;;;;;;11.52;2.70;;;;;;;;;;5053557;28;20419;-77
2023/03/25 13:29:58;;;;;;;10.68;2.83;;;;;;;;;;5051632;28;20448;-78
2023/03/25 13:32:38;;;;;;;11.52;2.90;;;;;;;;;;5051236;28;20420;-79
2023/03/25 13:35:11;;;;;;;14.25;2.88;;;;;;;;;;5037609;28;20427;-77
2023/03/25 13:37:40;;;;;;;14.63;3.05;;;;;;;;;;5039103;28;20423;-78
2023/03/25 13:40:13;;;;;;;10.38;2.55;;;;;;;;;;5039935;28;20419;-79
2023/03/25 13:42:46;;;;;;;9.90;2.78;;;;;;;;;;5056039;28;20477;-79
2023/03/25 13:45:19;;;;;;;11.55;2.92;;;;;;;;;;5050480;28;20431;-78
2023/03/25 13:47:56;;;;;;;9.25;2.58;;;;;;;;;;5051831;28;20450;-78
2023/03/25 13:50:26;;;;;;;13.77;2.65;;;;;;;;;;5047081;28;21156;-78
2023/03/25 13:52:56;;;;;;;12.85;3.03;;;;;;;;;;5049852;28;20420;-78
2023/03/25 13:55:24;;;;;;;11.82;2.28;;;;;;;;;;5028788;28;20933;-78
2023/03/25 13:58:10;;;;;;;12.20;2.90;;;;;;;;;;5032633;28;20428;-78
2023/03/25 14:00:49;;;;;;;11.82;2.95;;;;;;;;;;5049314;28;20440;-79
2023/03/25 14:03:18;;;;;;;10.77;2.50;;;;;;;;;;5051488;28;20551;-77
2023/03/25 14:06:19;;;;;;;9.70;2.27;;;9.80;99.90;;;;;;5050489;28;20912;-77
2023/03/25 14:09:00;;;;;;;9.05;2.00;;;;;;;;;;5045996;28;20432;-79
2023/03/25 14:11:28;;;;;;;7.03;2.00;;;;;;;;;;5030652;28;20449;-79
2023/03/25 14:14:16;;;;;;;6.43;1.58;;;9.30;99.90;;;;;;5032426;28;20418;-79
2023/03/25 14:16:45;;;;;;;6.97;2.10;;;;;;;;;;5042280;28;20769;-79
2023/03/25 14:19:12;;;;;;;6.60;1.85;;;;;;;;;;5051336;28;20504;-80
2023/03/25 14:21:38;;;;;;;6.55;1.85;;;;;;;;;;5038456;28;20450;-80
2023/03/25 14:24:13;;;;;;;5.67;1.60;;;;;;;;;;5028211;28;20421;-80
2023/03/25 14:26:48;;;;;;;6.45;1.67;;;;;;;;;;5048720;28;20773;-79
2023/03/25 14:29:30;;;;;;;7.97;2.00;;;10.10;99.90;;;;;;5033869;28;20493;-78
2023/03/25 14:32:08;;;;;;;11.23;2.40;;;;;;;;;;5047041;28;20500;-78
2023/03/25 14:34:35;;;;;;;10.45;2.38;;;;;;;;;;5034696;28;20431;-78
2023/03/25 14:37:03;;;;;;;10.93;2.28;;;;;;;;;;5030292;28;20433;-78
2023/03/25 14:39:29;;;;;;;8.82;2.65;;;;;;;;;;5045963;28;20456;-79
2023/03/25 14:41:59;;;;;;;7.97;2.38;;;;;;;;;;5032269;28;20464;-79